Time;durP1;ratioP1;P1;durP2;ratioP2;P2;SDS_P1;SDS_P2;PMS_P1;PMS_P2;Temp;Humidity;BMP_temperature;BMP_pressure;BME280_temperature;BME280_humidity;BME280_pressure;Samples;Min_cycle;Max_cycle;Signal;HPM_P1;HPM_P2
2022/09/19 04:17:07;;;;;;;1.00;0.90;;;;;;;8.11;100.00;100509.84;5215499;23;20066;-76
2022/09/19 04:19:33;;;;;;;1.30;0.90;;;;;;;8.13;100.00;100518.47;4990397;28;20046;-76
2022/09/19 04:22:25;;;;;;;1.83;1.13;;;;;;;8.08;100.00;100514.59;5006728;28;20043;-75
2022/09/19 04:25:13;;;;;;;1.48;0.98;;;;;;;8.08;100.00;100515.44;5006757;28;20053;-75
2022/09/19 04:28:00;;;;;;;1.25;0.98;;;;;;;8.08;100.00;100523.41;4990220;28;20145;-76
2022/09/19 04:30:26;;;;;;;2.55;1.10;;;;;;;8.08;100.00;100525.22;4992583;28;20049;-74
2022/09/19 04:32:55;;;;;;;1.60;1.17;;;;;;;8.08;100.00;100528.69;4993934;28;20065;-74
2022/09/19 04:35:22;;;;;;;1.73;1.10;;;;;;;8.11;100.00;100527.59;4994075;28;20567;-74
2022/09/19 04:37:48;;;;;;;1.58;1.08;;;;;;;8.15;100.00;100531.63;4994194;28;20148;-74
2022/09/19 04:40:15;;;;;;;1.60;1.15;;;;;;;8.15;100.00;100526.31;4993781;28;20044;-74
2022/09/19 04:42:41;;;;;;;2.92;1.42;;;;;;;8.14;100.00;100529.91;4993993;28;20038;-74
2022/09/19 04:45:07;;;;;;;1.55;1.30;;;;;;;8.15;100.00;100528.97;4994541;28;20481;-74
2022/09/19 04:47:55;;;;;;;1.60;1.10;;;;;;;8.21;100.00;100530.16;4993959;28;20052;-74
2022/09/19 04:50:20;;;;;;;2.97;1.33;;;;;;;8.22;100.00;100539.81;4994964;28;20034;-74
2022/09/19 04:52:56;;;;;;;3.80;1.38;;;;;;;8.24;100.00;100535.19;4995059;28;20034;-74
2022/09/19 04:55:24;;;;;;;2.72;1.38;;;;;;;8.24;100.00;100546.63;4994980;28;20129;-74
2022/09/19 04:57:49;;;;;;;2.42;1.33;;;;;;;8.25;100.00;100545.63;4995030;28;20444;-74
2022/09/19 05:00:14;;;;;;;1.45;0.90;;;;;;;8.27;100.00;100546.31;4993407;28;20056;-74
2022/09/19 05:02:47;;;;;;;1.10;1.00;;;;;;;8.35;100.00;100549.09;4993556;28;20034;-74
2022/09/19 05:05:17;;;;;;;4.35;1.10;;;;;;;8.37;100.00;100562.22;4993519;28;20042;-74
2022/09/19 05:07:44;;;;;;;2.65;1.23;;;;;;;8.41;100.00;100555.59;4994876;28;20129;-74
2022/09/19 05:10:10;;;;;;;1.58;1.10;;;;;;;8.48;100.00;100555.84;4993281;28;20125;-74
2022/09/19 05:12:37;;;;;;;2.97;1.30;;;;;;;8.50;100.00;100565.31;4993337;28;20030;-74
2022/09/19 05:15:03;;;;;;;1.63;1.52;;;;;;;8.48;100.00;100562.00;4993524;28;20053;-75
2022/09/19 05:17:30;;;;;;;2.30;1.30;;;;;;;8.50;100.00;100551.22;4993284;28;20039;-74
2022/09/19 05:19:55;;;;;;;1.00;0.85;;;;;;;8.55;100.00;100559.56;4993309;28;20045;-75
2022/09/19 05:22:21;;;;;;;1.50;1.23;;;;;;;8.57;100.00;100561.06;4993114;28;20405;-74
2022/09/19 05:24:46;;;;;;;2.30;1.48;;;;;;;8.61;100.00;100564.25;4993289;28;20042;-74
2022/09/19 05:27:12;;;;;;;3.45;1.30;;;;;;;8.64;100.00;100571.91;4978852;28;20042;-74
2022/09/19 05:29:40;;;;;;;3.47;1.50;;;;;;;8.67;100.00;100575.09;4974249;28;20041;-75
2022/09/19 05:32:06;;;;;;;1.65;0.90;;;;;;;8.69;100.00;100573.13;4973422;28;20524;-74
2022/09/19 05:34:41;;;;;;;2.08;1.55;;;;;;;8.74;100.00;100580.66;4973641;28;20086;-74
2022/09/19 05:37:27;;;;;;;1.10;0.90;;;;;;;8.78;100.00;100574.03;4975120;28;20564;-74
2022/09/19 05:40:12;;;;;;;1.70;1.17;;;;;;;8.83;100.00;100573.56;4973381;28;20057;-74
2022/09/19 05:43:08;;;;;;;1.00;0.75;;;;;;;8.84;100.00;100581.38;4965049;28;20085;-75
2022/09/19 05:45:34;;;;;;;2.17;1.17;;;;;;;8.88;100.00;100581.91;4957578;28;20434;-74
2022/09/19 05:48:04;;;;;;;3.95;1.17;;;;;;;8.91;100.00;100582.44;4973312;28;20039;-74
2022/09/19 05:50:31;;;;;;;1.50;0.88;;;;;;;8.96;100.00;100590.78;4972998;28;20153;-74
2022/09/19 05:55:41;;;;;;;1.30;1.00;;;;;;;9.03;100.00;100587.50;4973119;28;20109;-73
2022/09/19 05:58:26;;;;;;;1.33;0.98;;;;;;;9.06;100.00;100593.31;4974474;28;20065;-74
2022/09/19 06:00:52;;;;;;;4.97;1.10;;;;;;;9.10;100.00;100592.03;4972748;28;20035;-74
2022/09/19 06:03:21;;;;;;;1.40;1.30;;;;;;;9.15;100.00;100594.25;4973023;28;20062;-74
2022/09/19 06:05:50;;;;;;;1.83;1.60;;;;;;;9.19;100.00;100590.25;4973028;28;20035;-74
2022/09/19 06:08:18;;;;;;;2.17;1.13;;;;;;;9.24;100.00;100594.13;4972958;28;20034;-74
2022/09/19 06:10:44;;;;;;;;;;;;;;;9.27;100.00;100590.34;4973085;28;20043;-74
2022/09/19 06:13:17;;;;;;;1.67;1.02;;;;;;;9.33;100.00;100604.84;4972956;28;20344;-74
2022/09/19 06:15:42;;;;;;;5.15;0.95;;;;;;;9.34;100.00;100602.00;4974128;28;20149;-74
2022/09/19 06:18:11;;;;;;;3.03;1.20;;;;;;;9.36;100.00;100607.16;4972780;28;20038;-75
2022/09/19 06:20:41;;;;;;;2.75;1.27;;;;;;;9.40;100.00;100614.69;4972559;28;20045;-74
2022/09/19 06:23:10;;;;;;;2.55;0.95;;;;;;;9.38;100.00;100606.00;4972836;28;20458;-74
2022/09/19 06:25:41;;;;;;;4.32;1.17;;;;;;;9.48;100.00;100620.03;4972655;28;20042;-74
2022/09/19 06:28:11;;;;;;;5.22;1.25;;;;;;;9.51;100.00;100624.19;4972591;28;20042;-75
2022/09/19 06:30:40;;;;;;;2.80;1.13;;;;;;;9.52;100.00;100624.06;4972435;28;20030;-75
2022/09/19 06:33:20;;;;;;;1.55;1.20;;;;;;;9.59;100.00;100623.44;4972469;28;20685;-74
2022/09/19 06:35:59;;;;;;;2.80;1.33;;;;;;;9.65;100.00;100613.00;4972585;28;20047;-74
2022/09/19 06:38:32;;;;;;;3.38;1.50;;;;;;;9.66;100.00;100616.50;4972511;28;20490;-74
2022/09/19 06:41:15;;;;;;;2.78;1.05;;;;;;;9.72;100.00;100629.16;4972031;28;20089;-75
2022/09/19 06:43:55;;;;;;;4.97;1.85;;;;;;;9.78;100.00;100631.19;4972459;28;20428;-74
2022/09/19 06:46:44;;;;;;;2.90;1.27;;;;;;;9.81;100.00;100624.69;4954446;28;20054;-74
2022/09/19 06:49:23;;;;;;;3.65;1.30;;;;;;;9.78;100.00;100632.03;4973433;28;20039;-67
2022/09/19 06:51:54;;;;;;;4.38;1.50;;;;;;;9.85;100.00;100636.72;4973142;28;20043;-65
2022/09/19 06:54:21;;;;;;;6.13;1.45;;;;;;;9.93;100.00;100636.75;4973159;28;20046;-64
2022/09/19 06:56:48;;;;;;;6.05;1.33;;;;;;;9.85;100.00;100626.06;4971966;28;20035;-65
2022/09/19 06:59:16;;;;;;;2.45;1.42;;;;;;;10.02;100.00;100646.41;4972002;28;20107;-65
2022/09/19 07:01:42;;;;;;;4.85;1.17;;;;;;;10.05;100.00;100646.94;4971827;28;20045;-65
2022/09/19 07:04:08;;;;;;;2.22;1.17;;;;;;;10.11;100.00;100650.78;4971949;28;20039;-65
2022/09/19 07:06:57;;;;;;;1.83;1.02;;;;;;;10.19;100.00;100650.81;4965131;28;20098;-64
2022/09/19 07:09:23;;;;;;;3.40;1.60;;;;;;;10.19;100.00;100653.47;4971848;28;20038;-65
2022/09/19 07:11:51;;;;;;;2.40;1.13;;;;;;;10.18;100.00;100641.16;4972754;28;20043;-64
2022/09/19 07:14:17;;;;;;;1.80;0.93;;;;;;;10.27;100.00;100655.38;4972896;28;20037;-64
2022/09/19 07:16:42;;;;;;;4.50;1.30;;;;;;;10.37;100.00;100658.75;4971637;28;20042;-64
2022/09/19 07:19:08;;;;;;;2.10;1.02;;;;;;;10.37;100.00;100661.41;4955586;28;20137;-65
2022/09/19 07:21:59;;;;;;;2.50;1.25;;;;;;;10.38;100.00;100667.56;4951391;28;20070;-65
2022/09/19 07:24:41;;;;;;;1.83;1.30;;;;;;;10.42;100.00;100664.38;4971586;28;20062;-65
2022/09/19 07:27:18;;;;;;;2.33;1.02;;;;;;;10.46;100.00;100663.09;4972894;28;20085;-65
2022/09/19 07:29:45;;;;;;;3.65;0.95;;;;;;;10.49;100.00;100665.41;4971612;28;20654;-64
2022/09/19 07:32:11;;;;;;;2.28;1.45;;;;;;;10.49;100.00;100677.88;4971401;28;20037;-65
2022/09/19 07:34:37;;;;;;;1.73;1.00;;;;;;;10.52;100.00;100678.41;4971804;28;20118;-65
2022/09/19 07:37:03;;;;;;;5.18;1.23;;;;;;;10.63;100.00;100679.09;4971621;28;20121;-65
2022/09/19 07:39:29;;;;;;;7.90;1.40;;;;;;;10.63;100.00;100669.28;4972866;28;20129;-64
2022/09/19 07:42:06;;;;;;;3.33;1.30;;;;;;;10.63;99.94;100684.41;4956805;28;20039;-64
2022/09/19 07:44:54;;;;;;;4.10;1.20;;;;;;;10.66;98.95;100686.78;4972548;28;20499;-64
2022/09/19 07:47:41;;;;;;;2.22;0.93;;;;;;;10.71;99.60;100685.28;4971529;28;20046;-65
2022/09/19 07:50:31;;;;;;;2.03;1.00;;;;;;;10.78;99.52;100686.31;4967026;28;20046;-64
2022/09/19 07:53:00;;;;;;;2.83;1.30;;;;;;;10.89;98.52;100698.50;4971596;28;20037;-63
2022/09/19 07:55:28;;;;;;;2.40;1.10;;;;;;;10.89;99.23;100695.81;4971226;28;20062;-66
2022/09/19 07:57:58;;;;;;;2.10;1.15;;;;;;;10.92;98.71;100699.97;4971259;28;20136;-63
2022/09/19 08:00:37;;;;;;;3.20;1.75;;;;;;;10.97;96.63;100700.34;4970884;28;20093;-64
2022/09/19 08:03:07;;;;;;;2.70;1.20;;;;;;;11.07;97.84;100712.47;4971054;28;20613;-64
2022/09/19 08:05:38;;;;;;;1.20;1.00;;;;;;;11.10;95.88;100712.16;4973464;28;20089;-66
2022/09/19 08:08:05;;;;;;;2.03;0.98;;;;;;;11.20;97.06;100713.84;4975518;28;20399;-65
2022/09/19 08:10:32;;;;;;;4.97;1.17;;;;;;;11.20;95.76;100722.66;4959022;28;20627;-63
2022/09/19 08:13:00;;;;;;;;;;;;;;;11.24;94.10;100723.19;4975433;28;20413;-63
2022/09/19 08:15:26;;;;;;;3.45;1.55;;;;;;;11.30;94.46;100722.50;4976180;28;19922;-64
2022/09/19 08:17:59;;;;;;;3.53;1.10;;;;;;;11.44;93.22;100729.00;4975241;28;20508;-64
2022/09/19 08:20:33;;;;;;;1.25;1.00;;;;;;;11.57;93.45;100727.50;4974654;28;20031;-63
2022/09/19 08:23:01;;;;;;;2.97;0.77;;;;;;;11.60;93.73;100724.47;4974955;28;20060;-64
2022/09/19 08:25:28;;;;;;;4.25;1.10;;;;;;;11.70;93.70;100729.66;4974744;28;20654;-64
2022/09/19 08:27:55;;;;;;;3.28;1.10;;;;;;;11.76;92.75;100731.66;4974773;28;20038;-63
2022/09/19 08:30:26;;;;;;;6.28;1.52;;;;;;;11.78;91.11;100726.16;4974613;28;20399;-64
2022/09/19 08:32:53;;;;;;;4.63;1.50;;;;;;;11.73;90.10;100721.31;4974847;28;20405;-62
2022/09/19 08:35:20;;;;;;;1.10;0.70;;;;;;;11.66;90.12;100718.47;4974700;28;20051;-66
2022/09/19 08:37:46;;;;;;;11.90;1.17;;;;;;;11.65;89.98;100730.16;4974722;28;20047;-65
2022/09/19 08:40:15;;;;;;;4.00;1.67;;;;;;;11.68;91.65;100727.16;4975667;28;20282;-66
2022/09/19 08:42:51;;;;;;;1.58;0.88;;;;;;;11.75;91.39;100737.16;4975029;28;20035;-64
2022/09/19 08:45:54;;;;;;;3.40;1.00;;;;;;;11.77;93.27;100730.66;4974319;28;20066;-65
2022/09/19 08:48:27;;;;;;;3.25;1.25;;;;;;;11.83;91.83;100734.50;4975899;28;20031;-64
2022/09/19 08:51:32;;;;;;;1.70;1.23;;;;;;;11.88;89.74;100745.53;4974273;28;20074;-65
2022/09/19 08:54:05;;;;;;;5.88;1.35;;;;;;;11.98;91.64;100748.81;4974547;28;20530;-65
2022/09/19 08:56:31;;;;;;;1.67;0.98;;;;;;;12.01;89.70;100751.16;4974419;28;20066;-64
2022/09/19 08:59:01;;;;;;;4.00;1.20;;;;;;;12.10;88.92;100755.47;4975922;28;20429;-65
2022/09/19 09:01:37;;;;;;;3.00;0.90;;;;;;;12.16;88.86;100751.28;4974261;28;20041;-65
2022/09/19 09:04:35;;;;;;;2.85;1.15;;;;;;;12.33;90.44;100757.44;4975538;28;20089;-65
2022/09/19 09:07:17;;;;;;;1.65;1.00;;;;;;;12.18;86.32;100759.97;4974112;28;20045;-65
2022/09/19 09:10:18;;;;;;;1.67;0.90;;;;;;;12.11;86.73;100765.16;4974472;28;20402;-65
2022/09/19 09:13:04;;;;;;;1.08;0.88;;;;;;;12.07;87.59;100758.50;4974093;28;20066;-63
2022/09/19 09:15:33;;;;;;;4.05;1.20;;;;;;;12.09;88.68;100759.16;4973917;28;20042;-65
2022/09/19 09:18:20;;;;;;;2.60;1.13;;;;;;;12.12;87.99;100763.31;4974391;28;20022;-66
2022/09/19 09:20:55;;;;;;;2.05;1.15;;;;;;;12.11;89.50;100759.81;4973593;28;20528;-65
2022/09/19 09:23:34;;;;;;;4.55;1.13;;;;;;;12.15;88.75;100761.13;4973818;28;20057;-65
2022/09/19 09:26:29;;;;;;;3.70;1.42;;;;;;;12.23;89.02;100766.47;4973751;28;20062;-65
2022/09/19 09:29:25;;;;;;;3.10;1.20;;;;;;;12.23;87.49;100761.13;4975107;28;20042;-65
2022/09/19 09:32:33;;;;;;;2.05;1.00;;;;;;;12.26;87.91;100767.09;4973420;28;20042;-65
2022/09/19 09:35:12;;;;;;;1.63;0.90;;;;;;;12.25;88.49;100760.09;4973831;28;20466;-65
2022/09/19 09:37:56;;;;;;;1.92;1.15;;;;;;;12.27;88.65;100758.13;4957746;28;20034;-65
2022/09/19 09:43:57;;;;;;;1.67;1.00;;;;;;;12.35;89.21;100763.44;4973512;28;20074;-62
2022/09/19 09:46:43;;;;;;;1.55;1.33;;;;;;;12.49;88.23;100758.19;4973322;28;20026;-65
2022/09/19 09:49:12;;;;;;;6.68;1.48;;;;;;;12.61;87.02;100747.94;4973574;28;20034;-65
2022/09/19 09:51:49;;;;;;;2.85;0.98;;;;;;;12.64;86.87;100744.91;4973225;28;20035;-65
2022/09/19 09:57:41;;;;;;;2.70;0.80;;;;;;;12.85;84.29;100740.81;4973128;28;20035;-64
2022/09/19 10:06:06;;;;;;;7.20;1.33;;;;;;;13.01;83.57;100746.88;4973056;28;20070;-65
2022/09/19 10:08:37;;;;;;;1.75;1.08;;;;;;;13.06;82.29;100746.38;4973076;28;20121;-64
2022/09/19 10:11:33;;;;;;;5.22;1.10;;;;;;;13.22;82.22;100743.59;4973977;28;20034;-65
2022/09/19 10:14:01;;;;;;;2.53;0.90;;;;;;;13.30;81.70;100742.69;4974286;28;20035;-64
2022/09/19 10:16:32;;;;;;;5.75;1.13;;;;;;;13.47;84.67;100746.09;4972582;28;20035;-65
2022/09/19 10:19:21;;;;;;;4.68;1.08;;;;;;;13.65;84.54;100738.56;4972839;28;20034;-65
2022/09/19 10:21:48;;;;;;;3.20;1.10;;;;;;;13.77;82.96;100745.16;4972445;28;20042;-65
2022/09/19 10:24:40;;;;;;;1.38;0.95;;;;;;;13.97;87.40;100748.16;4972658;28;20042;-66
2022/09/19 10:27:22;;;;;;;3.47;1.70;;;;;;;14.11;79.07;100743.81;4973456;28;20026;-65
2022/09/19 10:30:10;;;;;;;5.13;1.33;;;;;;;14.18;77.70;100746.59;4972669;28;20054;-65
2022/09/19 10:32:37;;;;;;;1.92;1.42;;;;;;;14.16;77.55;100738.75;4972848;28;20035;-66
2022/09/19 10:35:32;;;;;;;4.93;1.00;;;;;;;14.12;77.18;100730.22;4973897;28;20545;-65
2022/09/19 10:38:02;;;;;;;2.80;1.02;;;;;;;14.29;77.93;100741.59;4972815;28;20379;-66
2022/09/19 10:40:31;;;;;;;2.38;1.20;;;;;;;14.59;78.92;100733.53;4973604;28;20053;-64
2022/09/19 10:42:59;;;;;;;2.53;1.10;;;;;;;14.76;79.52;100737.69;4956323;28;20027;-64
2022/09/19 10:45:35;;;;;;;9.27;2.95;;;;;;;14.92;76.98;100742.81;4972602;28;20039;-66
2022/09/19 10:48:20;;;;;;;2.45;1.48;;;;;;;15.08;76.08;100743.59;4972417;28;20031;-64
2022/09/19 10:50:48;;;;;;;4.25;1.25;;;;;;;15.15;76.44;100733.78;4972034;28;20058;-66
2022/09/19 10:53:24;;;;;;;2.05;0.93;;;;;;;15.12;74.61;100742.19;4972067;28;20035;-65
2022/09/19 10:55:52;;;;;;;3.85;1.42;;;;;;;15.86;74.28;100731.09;4972102;28;20038;-65
2022/09/19 10:58:26;;;;;;;2.83;1.05;;;;;;;16.60;74.26;100746.59;4972047;28;20117;-65
2022/09/19 11:01:25;;;;;;;0.90;0.80;;;;;;;17.20;69.88;100731.50;4971856;28;20038;-65
2022/09/19 11:04:13;;;;;;;3.10;0.90;;;;;;;16.80;64.73;100739.47;4971982;28;20027;-65
2022/09/19 11:06:56;;;;;;;3.95;1.55;;;;;;;16.23;66.92;100738.75;4973237;28;20089;-65
2022/09/19 11:09:33;;;;;;;2.20;1.23;;;;;;;16.16;70.34;100742.44;4971951;28;20569;-65
2022/09/19 11:12:16;;;;;;;1.77;0.82;;;;;;;16.05;71.72;100727.72;4971662;28;20052;-65
2022/09/19 11:14:45;;;;;;;2.85;0.95;;;;;;;16.00;68.42;100732.84;4971958;28;20045;-65
2022/09/19 11:18:01;;;;;;;1.38;1.08;;;;;;;15.98;68.50;100732.22;4971808;28;20496;-66
2022/09/19 11:20:48;;;;;;;1.83;1.15;;;;;;;16.15;69.28;100727.34;4971453;28;20082;-66
2022/09/19 11:23:28;;;;;;;2.83;1.10;;;;;;;16.50;68.98;100731.69;4971717;28;20121;-66
2022/09/19 11:26:11;;;;;;;6.03;1.20;;;;;;;16.41;72.98;100723.97;4971783;28;20038;-65
2022/09/19 11:29:04;;;;;;;4.00;1.00;;;;;;;16.87;67.40;100724.16;4971553;28;20042;-65
2022/09/19 11:31:48;;;;;;;4.20;0.88;;;;;;;16.81;66.75;100731.19;4971311;28;20474;-65
2022/09/19 11:34:43;;;;;;;1.98;1.10;;;;;;;16.66;65.80;100719.72;4955891;28;20039;-64
2022/09/19 11:37:47;;;;;;;3.78;1.00;;;;;;;16.41;69.34;100724.78;4971446;28;20042;-65
2022/09/19 11:40:29;;;;;;;3.67;1.52;;;;;;;16.47;67.29;100728.56;4954706;28;20122;-65
2022/09/19 11:43:13;;;;;;;0.82;0.65;;;;;;;16.38;65.97;100717.16;4971510;28;20038;-64
2022/09/19 11:45:53;;;;;;;4.03;0.93;;;;;;;16.25;67.35;100717.91;4971534;28;20398;-66
2022/09/19 11:48:54;;;;;;;1.85;1.00;;;;;;;16.29;67.82;100712.94;4971331;28;20046;-66
2022/09/19 11:51:49;;;;;;;2.78;1.00;;;;;;;16.42;68.60;100704.13;4971129;28;20034;-65
2022/09/19 11:54:41;;;;;;;4.60;1.08;;;;;;;16.42;67.99;100704.94;4971292;28;20085;-64
2022/09/19 11:57:39;;;;;;;2.05;0.98;;;;;;;16.71;66.67;100695.78;4971249;28;20030;-66
2022/09/19 12:00:12;;;;;;;1.73;1.25;;;;;;;17.85;64.92;100706.44;4971072;28;20045;-66
2022/09/19 12:03:34;;;;;;;4.93;1.00;;;;;;;19.12;55.49;100696.84;4972750;28;20042;-65
2022/09/19 12:06:34;;;;;;;1.60;1.05;;;;;;;20.44;54.54;100683.94;4893789;29;20108;-65
2022/09/19 12:09:38;;;;;;;4.78;1.00;;;;;;;21.59;50.25;100685.63;4878618;29;20447;-66
2022/09/19 12:12:11;;;;;;;2.83;1.15;;;;;;;20.82;49.29;100674.72;4931438;29;20043;-65
2022/09/19 12:15:01;;;;;;;1.60;0.93;;;;;;;20.54;50.41;100673.44;4969983;28;20528;-64
2022/09/19 12:17:42;;;;;;;0.88;0.65;;;;;;;21.00;48.45;100668.41;4971261;28;20039;-66
2022/09/19 12:20:30;;;;;;;3.13;0.90;;;;;;;20.81;47.87;100670.34;4971004;28;20463;-66
2022/09/19 12:26:04;;;;;;;1.20;0.70;;;;;;;21.78;45.31;100665.47;4971077;28;20058;-66
2022/09/19 12:28:34;;;;;;;1.45;0.82;;;;;;;22.04;45.82;100660.56;4972363;28;20192;-64
2022/09/19 12:31:04;;;;;;;2.63;0.85;;;;;;;21.94;44.50;100656.59;4972210;28;20027;-64
2022/09/19 12:33:50;;;;;;;2.60;1.20;;;;;;;21.99;45.09;100658.59;4970910;28;20093;-64
2022/09/19 12:36:30;;;;;;;0.82;0.50;;;;;;;22.68;44.77;100654.03;4971060;28;20083;-64
2022/09/19 12:39:10;;;;;;;1.25;0.47;;;;;;;23.36;44.34;100654.97;4970909;28;20058;-65
2022/09/19 12:41:45;;;;;;;1.15;0.70;;;;;;;24.34;41.51;100655.28;4971841;28;20030;-64
2022/09/19 12:44:16;;;;;;;1.00;0.50;;;;;;;24.22;41.94;100655.38;4970853;28;20062;-65
2022/09/19 12:47:08;;;;;;;1.92;0.50;;;;;;;24.10;40.96;100655.50;4970880;28;20066;-63
2022/09/19 12:50:35;;;;;;;1.42;0.30;;;;;;;24.16;41.11;100645.50;4970786;28;20103;-64
2022/09/19 12:53:09;;;;;;;1.50;0.60;;;;;;;24.41;40.70;100655.91;4896998;29;20049;-65
2022/09/19 12:56:15;;;;;;;1.67;0.68;;;;;;;24.20;41.33;100651.28;4964436;28;20047;-65
2022/09/19 12:59:13;;;;;;;2.85;0.52;;;;;;;23.64;42.25;100647.78;4975573;28;20030;-65
2022/09/19 13:01:52;;;;;;;1.98;1.02;;;;;;;22.16;44.00;100647.84;4975338;28;20035;-65
2022/09/19 13:04:28;;;;;;;0.65;0.60;;;;;;;21.83;46.34;100643.84;4975563;28;20108;-65
2022/09/19 13:07:10;;;;;;;1.48;0.90;;;;;;;22.15;45.47;100635.34;4975268;28;20454;-65
2022/09/19 13:10:02;;;;;;;1.05;0.50;;;;;;;22.74;44.96;100635.94;4975458;28;20082;-65
2022/09/19 13:12:35;;;;;;;1.05;0.50;;;;;;;23.16;43.21;100638.34;4938673;28;20066;-65
2022/09/19 13:15:11;;;;;;;1.05;0.50;;;;;;;22.78;43.37;100626.25;4975305;28;20439;-65
2022/09/19 13:23:35;;;;;;;1.00;0.55;;;;;;;24.09;40.68;100625.81;4975139;28;20030;-65
2022/09/19 13:26:33;;;;;;;1.23;0.52;;;;;;;24.39;40.47;100630.00;4975042;28;20039;-65
2022/09/19 13:29:00;;;;;;;0.70;0.30;;;;;;;24.11;38.18;100634.53;4975052;28;20082;-66
2022/09/19 13:31:45;;;;;;;;;;;;;;;22.43;39.75;100637.25;4975152;28;20034;-66
2022/09/19 13:34:39;;;;;;;0.93;0.40;;;;;;;21.43;42.75;100642.94;4974999;28;19932;-64
2022/09/19 13:37:26;;;;;;;0.43;0.22;;;;;;;20.74;47.47;100639.84;4974944;28;20100;-64
2022/09/19 13:40:02;;;;;;;0.20;0.20;;;;;;;20.00;51.02;100639.09;4974795;28;20046;-63
2022/09/19 13:42:38;;;;;;;0.38;0.30;;;;;;;19.90;51.56;100636.94;4974700;28;20094;-65
2022/09/19 13:45:25;;;;;;;1.73;0.65;;;;;;;19.25;56.70;100633.78;4974690;28;20548;-65
2022/09/19 13:47:51;;;;;;;;;;;;;;;18.91;55.96;100629.72;4975260;28;20031;-65
2022/09/19 13:50:31;;;;;;;1.55;0.68;;;;;;;19.01;57.37;100627.34;4973100;28;19982;-64
2022/09/19 13:53:02;;;;;;;1.70;0.55;;;;;;;19.72;55.02;100629.63;4974623;28;20034;-64
2022/09/19 13:55:33;;;;;;;0.75;0.45;;;;;;;20.40;50.69;100625.06;4974622;28;20050;-65
2022/09/19 13:58:19;;;;;;;0.73;0.40;;;;;;;20.92;51.40;100623.53;4973198;28;20038;-64
2022/09/19 14:01:04;;;;;;;2.97;0.63;;;;;;;21.01;49.99;100616.72;4974181;28;20489;-65
2022/09/19 14:03:40;;;;;;;0.82;0.50;;;;;;;20.75;50.40;100612.53;4973470;28;20046;-65
2022/09/19 14:06:29;;;;;;;1.02;0.45;;;;;;;20.73;52.34;100625.47;4974369;28;20039;-65
2022/09/19 14:09:14;;;;;;;3.55;0.98;;;;;;;20.37;54.04;100625.56;4974387;28;20035;-66
2022/09/19 14:11:41;;;;;;;0.60;0.50;;;;;;;19.79;50.27;100619.56;4974225;28;20038;-65
2022/09/19 14:14:38;;;;;;;1.42;0.40;;;;;;;19.32;52.73;100617.53;4974286;28;20027;-65
2022/09/19 14:17:26;;;;;;;1.80;0.68;;;;;;;19.16;52.31;100614.31;4974002;28;20042;-65
2022/09/19 14:19:54;;;;;;;1.83;0.60;;;;;;;18.88;52.80;100613.94;4974150;28;20042;-64
2022/09/19 14:22:35;;;;;;;0.55;0.40;;;;;;;18.48;53.29;100621.44;4973950;28;20045;-65
2022/09/19 14:25:07;;;;;;;0.65;0.55;;;;;;;18.23;54.02;100613.25;4974158;28;20109;-65
2022/09/19 14:27:50;;;;;;;0.95;0.50;;;;;;;18.06;55.69;100619.16;4974025;28;20035;-65
2022/09/19 14:30:35;;;;;;;0.65;0.50;;;;;;;18.06;58.26;100613.75;4973725;28;20039;-65
2022/09/19 14:33:27;;;;;;;1.80;0.88;;;;;;;17.90;56.76;100628.50;4973999;28;20035;-66
2022/09/19 14:36:18;;;;;;;1.40;0.60;;;;;;;17.70;55.67;100618.78;4973816;28;20034;-65
2022/09/19 14:38:56;;;;;;;0.70;0.50;;;;;;;17.75;56.93;100619.03;4973973;28;20041;-65
2022/09/19 14:41:57;;;;;;;0.75;0.50;;;;;;;17.89;56.90;100618.78;4973563;28;20047;-64
2022/09/19 14:45:02;;;;;;;0.55;0.30;;;;;;;18.03;56.47;100616.03;4972365;28;20073;-64
2022/09/19 14:47:36;;;;;;;1.45;0.90;;;;;;;18.05;59.00;100622.84;4973563;28;20046;-62
2022/09/19 14:50:24;;;;;;;0.60;0.40;;;;;;;17.89;56.82;100617.94;4973517;28;20035;-64
2022/09/19 14:53:04;;;;;;;0.65;0.45;;;;;;;17.85;56.19;100624.78;4973495;28;20376;-64
2022/09/19 14:55:42;;;;;;;1.23;0.63;;;;;;;17.83;55.94;100618.78;4973524;28;20113;-64
2022/09/19 14:58:22;;;;;;;0.50;0.40;;;;;;;17.62;57.05;100614.47;4973445;28;20042;-65
2022/09/19 15:00:55;;;;;;;0.65;0.45;;;;;;;17.58;56.66;100613.22;4973103;28;20128;-65
2022/09/19 15:03:21;;;;;;;0.82;0.35;;;;;;;17.34;58.01;100614.69;4971989;28;20524;-64
2022/09/19 15:05:48;;;;;;;0.63;0.60;;;;;;;17.36;57.26;100618.03;4971877;28;20518;-63
2022/09/19 15:08:33;;;;;;;0.35;0.30;;;;;;;17.50;58.04;100613.44;4973253;28;20105;-64
2022/09/19 15:11:04;;;;;;;0.50;0.20;;;;;;;17.62;57.21;100615.28;4972348;28;20046;-64
2022/09/19 15:13:31;;;;;;;1.05;0.50;;;;;;;17.67;58.20;100621.91;4973022;28;20042;-64
2022/09/19 15:16:02;;;;;;;0.50;0.50;;;;;;;17.64;57.70;100626.69;4971628;28;20542;-63
2022/09/19 15:18:35;;;;;;;0.80;0.55;;;;;;;17.58;58.02;100624.81;4971834;28;20046;-65
2022/09/19 15:21:03;;;;;;;0.52;0.40;;;;;;;17.38;56.07;100621.31;4971620;28;20126;-65
2022/09/19 15:23:32;;;;;;;1.13;0.47;;;;;;;17.38;56.34;100618.63;4971707;28;20050;-63
2022/09/19 15:26:06;;;;;;;2.00;0.55;;;;;;;17.33;56.61;100621.13;4973041;28;20038;-63
2022/09/19 15:28:37;;;;;;;1.25;0.60;;;;;;;17.31;57.34;100620.50;4973065;28;20034;-62
2022/09/19 15:31:24;;;;;;;2.20;0.60;;;;;;;17.22;56.22;100624.47;4972880;28;20034;-63
2022/09/19 15:34:13;;;;;;;1.67;1.00;;;;;;;17.20;55.84;100623.81;4973186;28;20127;-62
2022/09/19 15:36:40;;;;;;;0.98;0.50;;;;;;;17.19;55.29;100622.16;4971589;28;20039;-64
2022/09/19 15:39:09;;;;;;;0.47;0.45;;;;;;;17.04;53.12;100619.69;4971668;28;20046;-60
2022/09/19 15:41:35;;;;;;;1.33;0.40;;;;;;;17.03;53.12;100608.09;4972497;28;20035;-61
2022/09/19 15:44:06;;;;;;;0.50;0.30;;;;;;;16.98;52.85;100618.66;4972694;28;20043;-64
2022/09/19 15:46:39;;;;;;;0.80;0.40;;;;;;;16.85;52.95;100615.13;4971348;28;20051;-61
2022/09/19 15:49:26;;;;;;;1.73;0.80;;;;;;;16.81;53.06;100617.38;4972750;28;20065;-61
2022/09/19 15:51:59;;;;;;;0.50;0.50;;;;;;;16.75;54.79;100616.31;4972698;28;20081;-64
2022/09/19 15:54:29;;;;;;;0.32;0.20;;;;;;;16.78;54.48;100615.94;4972799;28;20106;-63
2022/09/19 15:57:11;;;;;;;0.57;0.40;;;;;;;16.82;54.84;100616.34;4972686;28;20467;-62
2022/09/19 15:59:45;;;;;;;0.63;0.40;;;;;;;16.77;53.45;100605.38;4971484;28;20050;-64
2022/09/19 16:02:16;;;;;;;0.17;0.17;;;;;;;16.57;53.62;100607.19;4972446;28;20089;-65
2022/09/19 16:04:45;;;;;;;0.82;0.30;;;;;;;16.50;55.06;100607.16;4972840;28;20039;-65
2022/09/19 16:10:15;;;;;;;1.90;0.50;;;;;;;16.27;55.10;100619.06;4972142;28;20051;-65
2022/09/19 16:12:44;;;;;;;1.52;0.30;;;;;;;16.18;55.57;100611.41;4972579;28;20067;-63
2022/09/19 16:15:15;;;;;;;1.55;0.50;;;;;;;16.14;56.95;100615.50;4972467;28;20031;-64
2022/09/19 16:18:00;;;;;;;0.60;0.45;;;;;;;16.14;56.46;100624.41;4972534;28;20038;-63
2022/09/19 16:20:32;;;;;;;1.15;0.52;;;;;;;16.18;56.97;100628.34;4970828;28;20039;-64
2022/09/19 16:23:15;;;;;;;1.05;0.45;;;;;;;16.18;56.49;100622.97;4972307;28;20034;-63
2022/09/19 16:25:47;;;;;;;0.50;0.38;;;;;;;16.05;57.77;100622.09;4973196;28;20031;-64
2022/09/19 16:28:27;;;;;;;0.65;0.52;;;;;;;15.93;58.45;100616.47;4976308;28;20049;-62
2022/09/19 16:31:08;;;;;;;0.55;0.40;;;;;;;15.92;58.46;100617.50;4976372;28;20043;-65
2022/09/19 16:33:40;;;;;;;2.80;0.60;;;;;;;15.82;59.69;100615.16;4976255;28;20804;-64
2022/09/19 16:36:14;;;;;;;5.38;3.30;;;;;;;15.83;61.08;100619.50;4988390;28;20382;-65
2022/09/19 16:39:00;;;;;;;1.92;1.27;;;;;;;15.87;61.60;100618.06;4995597;28;20117;-65
2022/09/19 16:41:32;;;;;;;2.42;0.98;;;;;;;15.80;62.58;100611.84;4995129;28;20384;-65
2022/09/19 16:44:00;;;;;;;1.33;0.55;;;;;;;15.78;62.49;100615.75;4995397;28;20035;-65
2022/09/19 16:46:26;;;;;;;2.95;0.70;;;;;;;15.73;64.36;100613.66;4995315;28;20505;-66
2022/09/19 16:48:51;;;;;;;1.48;0.60;;;;;;;15.72;64.70;100622.75;4995548;28;20070;-65
2022/09/19 16:51:18;;;;;;;0.73;0.60;;;;;;;15.68;65.27;100618.78;4995006;28;20482;-65
2022/09/19 16:53:43;;;;;;;0.82;0.73;;;;;;;15.54;65.92;100617.03;4995253;28;20030;-65
2022/09/19 16:56:15;;;;;;;0.80;0.70;;;;;;;15.42;66.73;100620.25;4989485;28;20551;-64